sensor_id;sensor_type;location;lat;lon;timestamp;P1;durP1;ratioP1;P2;durP2;ratioP2
19436;SDS011;9854;50.968;4.168;2023-11-19T00:01:31;9.57;;;3.10;;
19436;SDS011;9854;50.968;4.168;2023-11-19T00:03:57;12.38;;;3.42;;
19436;SDS011;9854;50.968;4.168;2023-11-19T00:06:23;14.23;;;3.55;;
19436;SDS011;9854;50.968;4.168;2023-11-19T00:08:50;17.15;;;3.47;;
19436;SDS011;9854;50.968;4.168;2023-11-19T00:11:16;11.32;;;3.25;;
19436;SDS011;9854;50.968;4.168;2023-11-19T00:13:42;13.77;;;3.38;;
19436;SDS011;9854;50.968;4.168;2023-11-19T00:16:08;12.85;;;3.38;;
19436;SDS011;9854;50.968;4.168;2023-11-19T00:18:34;18.13;;;4.00;;
19436;SDS011;9854;50.968;4.168;2023-11-19T00:21:01;15.07;;;3.45;;
19436;SDS011;9854;50.968;4.168;2023-11-19T00:23:27;15.18;;;3.55;;
19436;SDS011;9854;50.968;4.168;2023-11-19T00:25:53;15.32;;;3.55;;
19436;SDS011;9854;50.968;4.168;2023-11-19T00:28:19;17.45;;;3.67;;
19436;SDS011;9854;50.968;4.168;2023-11-19T00:30:44;17.15;;;3.65;;
19436;SDS011;9854;50.968;4.168;2023-11-19T00:33:10;17.38;;;4.03;;
19436;SDS011;9854;50.968;4.168;2023-11-19T00:35:35;15.20;;;3.58;;
19436;SDS011;9854;50.968;4.168;2023-11-19T00:38:02;20.08;;;4.22;;
19436;SDS011;9854;50.968;4.168;2023-11-19T00:40:29;16.38;;;4.22;;
19436;SDS011;9854;50.968;4.168;2023-11-19T00:42:54;21.98;;;4.47;;
19436;SDS011;9854;50.968;4.168;2023-11-19T00:45:20;22.75;;;3.90;;
19436;SDS011;9854;50.968;4.168;2023-11-19T00:47:46;24.80;;;4.05;;
19436;SDS011;9854;50.968;4.168;2023-11-19T00:50:12;18.98;;;4.30;;
19436;SDS011;9854;50.968;4.168;2023-11-19T00:52:38;25.23;;;3.78;;
19436;SDS011;9854;50.968;4.168;2023-11-19T00:55:04;26.77;;;4.30;;
19436;SDS011;9854;50.968;4.168;2023-11-19T00:57:30;32.13;;;5.03;;
19436;SDS011;9854;50.968;4.168;2023-11-19T00:59:58;22.27;;;4.85;;
19436;SDS011;9854;50.968;4.168;2023-11-19T01:02:24;29.15;;;5.00;;
19436;SDS011;9854;50.968;4.168;2023-11-19T01:04:50;19.15;;;4.30;;
19436;SDS011;9854;50.968;4.168;2023-11-19T01:07:15;19.33;;;4.43;;
19436;SDS011;9854;50.968;4.168;2023-11-19T01:09:42;23.25;;;4.63;;
19436;SDS011;9854;50.968;4.168;2023-11-19T01:12:07;19.70;;;4.05;;
19436;SDS011;9854;50.968;4.168;2023-11-19T01:14:35;31.13;;;5.88;;
19436;SDS011;9854;50.968;4.168;2023-11-19T01:17:01;22.70;;;4.60;;
19436;SDS011;9854;50.968;4.168;2023-11-19T01:19:27;25.55;;;4.88;;
19436;SDS011;9854;50.968;4.168;2023-11-19T01:21:53;23.83;;;5.10;;
19436;SDS011;9854;50.968;4.168;2023-11-19T01:24:19;27.00;;;5.13;;
19436;SDS011;9854;50.968;4.168;2023-11-19T01:26:45;36.53;;;5.85;;
19436;SDS011;9854;50.968;4.168;2023-11-19T01:29:11;27.00;;;5.30;;
19436;SDS011;9854;50.968;4.168;2023-11-19T01:31:45;34.67;;;6.25;;
19436;SDS011;9854;50.968;4.168;2023-11-19T01:34:13;28.85;;;5.78;;
19436;SDS011;9854;50.968;4.168;2023-11-19T01:36:39;31.55;;;5.85;;
19436;SDS011;9854;50.968;4.168;2023-11-19T01:39:04;23.08;;;5.57;;
19436;SDS011;9854;50.968;4.168;2023-11-19T01:41:34;35.03;;;6.22;;
19436;SDS011;9854;50.968;4.168;2023-11-19T01:44:00;26.20;;;5.60;;
19436;SDS011;9854;50.968;4.168;2023-11-19T01:46:26;30.08;;;5.63;;
19436;SDS011;9854;50.968;4.168;2023-11-19T01:48:52;38.90;;;6.95;;
19436;SDS011;9854;50.968;4.168;2023-11-19T01:51:19;30.85;;;6.70;;
19436;SDS011;9854;50.968;4.168;2023-11-19T01:53:46;33.15;;;6.15;;
19436;SDS011;9854;50.968;4.168;2023-11-19T01:56:14;30.95;;;7.18;;
19436;SDS011;9854;50.968;4.168;2023-11-19T01:58:41;30.10;;;5.60;;
19436;SDS011;9854;50.968;4.168;2023-11-19T02:01:09;31.30;;;6.55;;
19436;SDS011;9854;50.968;4.168;2023-11-19T02:03:36;27.27;;;6.22;;
19436;SDS011;9854;50.968;4.168;2023-11-19T02:06:02;30.92;;;7.13;;
19436;SDS011;9854;50.968;4.168;2023-11-19T02:08:29;25.50;;;4.68;;
19436;SDS011;9854;50.968;4.168;2023-11-19T02:10:55;29.65;;;6.57;;
19436;SDS011;9854;50.968;4.168;2023-11-19T02:13:23;29.88;;;5.45;;
19436;SDS011;9854;50.968;4.168;2023-11-19T02:15:52;31.05;;;5.45;;
19436;SDS011;9854;50.968;4.168;2023-11-19T02:18:21;21.55;;;5.38;;
19436;SDS011;9854;50.968;4.168;2023-11-19T02:20:49;33.15;;;6.00;;
19436;SDS011;9854;50.968;4.168;2023-11-19T02:23:16;35.25;;;6.72;;
19436;SDS011;9854;50.968;4.168;2023-11-19T02:25:43;34.80;;;6.32;;
19436;SDS011;9854;50.968;4.168;2023-11-19T02:28:20;33.55;;;7.05;;
19436;SDS011;9854;50.968;4.168;2023-11-19T02:30:46;35.00;;;6.43;;
19436;SDS011;9854;50.968;4.168;2023-11-19T02:33:11;33.35;;;6.80;;
19436;SDS011;9854;50.968;4.168;2023-11-19T02:35:37;36.90;;;7.03;;
19436;SDS011;9854;50.968;4.168;2023-11-19T02:38:05;36.90;;;7.05;;
19436;SDS011;9854;50.968;4.168;2023-11-19T02:40:32;33.72;;;6.10;;
19436;SDS011;9854;50.968;4.168;2023-11-19T02:42:57;43.67;;;8.13;;
19436;SDS011;9854;50.968;4.168;2023-11-19T02:45:23;39.10;;;6.88;;
19436;SDS011;9854;50.968;4.168;2023-11-19T02:47:50;46.47;;;8.25;;
19436;SDS011;9854;50.968;4.168;2023-11-19T02:50:20;35.92;;;6.47;;
19436;SDS011;9854;50.968;4.168;2023-11-19T02:52:50;39.03;;;7.03;;
19436;SDS011;9854;50.968;4.168;2023-11-19T02:55:24;44.45;;;6.90;;
19436;SDS011;9854;50.968;4.168;2023-11-19T02:57:50;42.38;;;7.18;;
19436;SDS011;9854;50.968;4.168;2023-11-19T03:00:18;39.05;;;6.35;;
19436;SDS011;9854;50.968;4.168;2023-11-19T03:02:49;38.45;;;6.60;;
19436;SDS011;9854;50.968;4.168;2023-11-19T03:05:30;41.15;;;7.72;;
19436;SDS011;9854;50.968;4.168;2023-11-19T03:07:56;36.30;;;7.07;;
19436;SDS011;9854;50.968;4.168;2023-11-19T03:10:22;33.22;;;6.43;;
19436;SDS011;9854;50.968;4.168;2023-11-19T03:12:48;39.00;;;6.63;;
19436;SDS011;9854;50.968;4.168;2023-11-19T03:15:14;40.28;;;6.38;;
19436;SDS011;9854;50.968;4.168;2023-11-19T03:17:41;33.78;;;6.03;;
19436;SDS011;9854;50.968;4.168;2023-11-19T03:20:08;35.28;;;6.50;;
19436;SDS011;9854;50.968;4.168;2023-11-19T03:22:39;34.65;;;6.05;;
19436;SDS011;9854;50.968;4.168;2023-11-19T03:25:06;38.13;;;6.55;;
19436;SDS011;9854;50.968;4.168;2023-11-19T03:27:33;36.15;;;6.55;;
19436;SDS011;9854;50.968;4.168;2023-11-19T03:30:04;28.02;;;5.60;;
19436;SDS011;9854;50.968;4.168;2023-11-19T03:32:34;34.35;;;6.20;;
19436;SDS011;9854;50.968;4.168;2023-11-19T03:35:00;36.13;;;6.85;;
19436;SDS011;9854;50.968;4.168;2023-11-19T03:37:27;37.13;;;6.72;;
19436;SDS011;9854;50.968;4.168;2023-11-19T03:39:59;39.45;;;6.47;;
19436;SDS011;9854;50.968;4.168;2023-11-19T03:42:28;42.58;;;5.85;;
19436;SDS011;9854;50.968;4.168;2023-11-19T03:44:55;38.72;;;5.85;;
19436;SDS011;9854;50.968;4.168;2023-11-19T03:47:21;33.83;;;6.25;;
19436;SDS011;9854;50.968;4.168;2023-11-19T03:49:50;35.08;;;6.53;;
19436;SDS011;9854;50.968;4.168;2023-11-19T03:52:17;35.67;;;6.20;;
19436;SDS011;9854;50.968;4.168;2023-11-19T03:54:43;39.78;;;6.70;;
19436;SDS011;9854;50.968;4.168;2023-11-19T03:57:09;34.25;;;6.70;;
19436;SDS011;9854;50.968;4.168;2023-11-19T03:59:35;39.72;;;7.82;;
19436;SDS011;9854;50.968;4.168;2023-11-19T04:02:01;34.72;;;6.63;;
19436;SDS011;9854;50.968;4.168;2023-11-19T04:04:27;38.92;;;6.82;;
19436;SDS011;9854;50.968;4.168;2023-11-19T04:06:54;32.63;;;6.75;;
19436;SDS011;9854;50.968;4.168;2023-11-19T04:09:20;44.25;;;7.32;;
19436;SDS011;9854;50.968;4.168;2023-11-19T04:11:46;34.88;;;6.90;;
19436;SDS011;9854;50.968;4.168;2023-11-19T04:14:15;43.90;;;7.65;;
19436;SDS011;9854;50.968;4.168;2023-11-19T04:16:43;48.45;;;7.38;;
19436;SDS011;9854;50.968;4.168;2023-11-19T04:19:09;37.88;;;7.32;;
19436;SDS011;9854;50.968;4.168;2023-11-19T04:21:35;45.83;;;7.80;;
19436;SDS011;9854;50.968;4.168;2023-11-19T04:24:01;35.33;;;7.05;;
19436;SDS011;9854;50.968;4.168;2023-11-19T04:26:27;36.95;;;7.45;;
19436;SDS011;9854;50.968;4.168;2023-11-19T04:28:52;42.30;;;6.82;;
19436;SDS011;9854;50.968;4.168;2023-11-19T04:31:18;40.58;;;8.02;;
19436;SDS011;9854;50.968;4.168;2023-11-19T04:33:43;48.33;;;8.32;;
19436;SDS011;9854;50.968;4.168;2023-11-19T04:36:10;50.42;;;7.18;;
19436;SDS011;9854;50.968;4.168;2023-11-19T04:38:36;39.92;;;7.65;;
19436;SDS011;9854;50.968;4.168;2023-11-19T04:41:03;47.30;;;8.07;;
19436;SDS011;9854;50.968;4.168;2023-11-19T04:43:30;40.60;;;7.85;;
19436;SDS011;9854;50.968;4.168;2023-11-19T04:45:57;35.13;;;8.35;;
19436;SDS011;9854;50.968;4.168;2023-11-19T04:48:22;40.65;;;7.97;;
19436;SDS011;9854;50.968;4.168;2023-11-19T04:50:48;47.92;;;7.65;;
19436;SDS011;9854;50.968;4.168;2023-11-19T04:53:15;39.97;;;6.65;;
19436;SDS011;9854;50.968;4.168;2023-11-19T04:55:41;40.92;;;8.52;;
19436;SDS011;9854;50.968;4.168;2023-11-19T04:58:06;47.13;;;9.05;;
19436;SDS011;9854;50.968;4.168;2023-11-19T05:00:32;48.28;;;8.70;;
19436;SDS011;9854;50.968;4.168;2023-11-19T05:02:58;48.13;;;8.80;;
19436;SDS011;9854;50.968;4.168;2023-11-19T05:05:23;53.10;;;9.07;;
19436;SDS011;9854;50.968;4.168;2023-11-19T05:07:49;48.28;;;8.25;;
19436;SDS011;9854;50.968;4.168;2023-11-19T05:10:14;43.70;;;8.52;;
19436;SDS011;9854;50.968;4.168;2023-11-19T05:12:40;42.80;;;8.10;;
19436;SDS011;9854;50.968;4.168;2023-11-19T05:15:07;49.65;;;8.73;;
19436;SDS011;9854;50.968;4.168;2023-11-19T05:17:33;45.97;;;8.38;;
19436;SDS011;9854;50.968;4.168;2023-11-19T05:19:59;50.10;;;8.88;;
19436;SDS011;9854;50.968;4.168;2023-11-19T05:22:25;53.80;;;9.65;;
19436;SDS011;9854;50.968;4.168;2023-11-19T05:24:51;45.35;;;7.97;;
19436;SDS011;9854;50.968;4.168;2023-11-19T05:27:17;58.97;;;8.88;;
19436;SDS011;9854;50.968;4.168;2023-11-19T05:29:42;50.05;;;8.00;;
19436;SDS011;9854;50.968;4.168;2023-11-19T05:32:08;52.33;;;8.57;;
19436;SDS011;9854;50.968;4.168;2023-11-19T05:34:35;48.83;;;9.88;;
19436;SDS011;9854;50.968;4.168;2023-11-19T05:37:00;47.53;;;8.82;;
19436;SDS011;9854;50.968;4.168;2023-11-19T05:39:27;56.53;;;9.50;;
19436;SDS011;9854;50.968;4.168;2023-11-19T05:41:53;43.80;;;8.60;;
19436;SDS011;9854;50.968;4.168;2023-11-19T05:44:19;47.00;;;8.40;;
19436;SDS011;9854;50.968;4.168;2023-11-19T05:46:44;48.40;;;9.10;;
19436;SDS011;9854;50.968;4.168;2023-11-19T05:49:11;49.50;;;8.02;;
19436;SDS011;9854;50.968;4.168;2023-11-19T05:51:39;51.22;;;8.68;;
19436;SDS011;9854;50.968;4.168;2023-11-19T05:54:09;45.40;;;7.57;;
19436;SDS011;9854;50.968;4.168;2023-11-19T05:56:35;43.58;;;7.57;;
19436;SDS011;9854;50.968;4.168;2023-11-19T05:59:01;43.75;;;7.55;;
19436;SDS011;9854;50.968;4.168;2023-11-19T06:01:29;48.88;;;8.88;;
19436;SDS011;9854;50.968;4.168;2023-11-19T06:03:54;43.92;;;8.45;;
19436;SDS011;9854;50.968;4.168;2023-11-19T06:06:20;46.13;;;7.97;;
19436;SDS011;9854;50.968;4.168;2023-11-19T06:08:46;61.05;;;10.13;;
19436;SDS011;9854;50.968;4.168;2023-11-19T06:11:12;55.45;;;9.13;;
19436;SDS011;9854;50.968;4.168;2023-11-19T06:13:43;47.92;;;9.10;;
19436;SDS011;9854;50.968;4.168;2023-11-19T06:16:09;50.63;;;8.98;;
19436;SDS011;9854;50.968;4.168;2023-11-19T06:18:35;49.75;;;8.90;;
19436;SDS011;9854;50.968;4.168;2023-11-19T06:21:01;46.65;;;9.10;;
19436;SDS011;9854;50.968;4.168;2023-11-19T06:23:27;52.58;;;9.90;;
19436;SDS011;9854;50.968;4.168;2023-11-19T06:25:53;56.40;;;9.75;;
19436;SDS011;9854;50.968;4.168;2023-11-19T06:28:18;46.90;;;8.15;;
19436;SDS011;9854;50.968;4.168;2023-11-19T06:30:44;50.03;;;7.97;;
19436;SDS011;9854;50.968;4.168;2023-11-19T06:33:12;61.10;;;9.63;;
19436;SDS011;9854;50.968;4.168;2023-11-19T06:35:38;50.72;;;7.85;;
19436;SDS011;9854;50.968;4.168;2023-11-19T06:38:04;45.92;;;7.78;;
19436;SDS011;9854;50.968;4.168;2023-11-19T06:40:30;47.78;;;8.10;;
19436;SDS011;9854;50.968;4.168;2023-11-19T06:42:56;41.38;;;8.27;;
19436;SDS011;9854;50.968;4.168;2023-11-19T06:45:22;47.80;;;9.27;;
19436;SDS011;9854;50.968;4.168;2023-11-19T06:47:48;49.35;;;9.07;;
19436;SDS011;9854;50.968;4.168;2023-11-19T06:50:13;57.22;;;9.27;;
19436;SDS011;9854;50.968;4.168;2023-11-19T06:52:40;53.08;;;8.57;;
19436;SDS011;9854;50.968;4.168;2023-11-19T06:55:05;43.55;;;7.97;;
19436;SDS011;9854;50.968;4.168;2023-11-19T06:57:32;53.83;;;8.90;;
19436;SDS011;9854;50.968;4.168;2023-11-19T06:59:57;46.88;;;8.02;;
19436;SDS011;9854;50.968;4.168;2023-11-19T07:02:23;45.72;;;8.90;;
19436;SDS011;9854;50.968;4.168;2023-11-19T07:04:50;51.58;;;9.20;;
19436;SDS011;9854;50.968;4.168;2023-11-19T07:07:16;48.40;;;9.18;;
19436;SDS011;9854;50.968;4.168;2023-11-19T07:09:41;51.25;;;9.40;;
19436;SDS011;9854;50.968;4.168;2023-11-19T07:12:08;55.22;;;8.90;;
19436;SDS011;9854;50.968;4.168;2023-11-19T07:14:34;50.13;;;8.85;;
19436;SDS011;9854;50.968;4.168;2023-11-19T07:16:59;58.47;;;8.88;;
19436;SDS011;9854;50.968;4.168;2023-11-19T07:19:25;51.65;;;8.10;;
19436;SDS011;9854;50.968;4.168;2023-11-19T07:21:51;49.80;;;9.48;;
19436;SDS011;9854;50.968;4.168;2023-11-19T07:24:19;55.63;;;9.48;;
19436;SDS011;9854;50.968;4.168;2023-11-19T07:26:46;54.70;;;8.65;;
19436;SDS011;9854;50.968;4.168;2023-11-19T07:29:13;56.03;;;9.88;;
19436;SDS011;9854;50.968;4.168;2023-11-19T07:31:40;56.20;;;8.85;;
19436;SDS011;9854;50.968;4.168;2023-11-19T07:34:05;41.42;;;8.00;;
19436;SDS011;9854;50.968;4.168;2023-11-19T07:36:31;65.20;;;9.43;;
19436;SDS011;9854;50.968;4.168;2023-11-19T07:38:58;57.20;;;9.35;;
19436;SDS011;9854;50.968;4.168;2023-11-19T07:41:23;51.35;;;8.60;;
19436;SDS011;9854;50.968;4.168;2023-11-19T07:43:50;54.05;;;9.13;;
19436;SDS011;9854;50.968;4.168;2023-11-19T07:46:17;57.90;;;8.85;;
19436;SDS011;9854;50.968;4.168;2023-11-19T07:48:46;47.42;;;8.10;;
19436;SDS011;9854;50.968;4.168;2023-11-19T07:51:12;47.70;;;8.15;;
19436;SDS011;9854;50.968;4.168;2023-11-19T07:53:39;48.15;;;8.80;;
19436;SDS011;9854;50.968;4.168;2023-11-19T07:56:05;45.70;;;8.60;;
19436;SDS011;9854;50.968;4.168;2023-11-19T07:58:32;43.75;;;8.45;;
19436;SDS011;9854;50.968;4.168;2023-11-19T08:00:58;45.38;;;8.35;;
19436;SDS011;9854;50.968;4.168;2023-11-19T08:03:24;51.63;;;9.90;;
19436;SDS011;9854;50.968;4.168;2023-11-19T08:05:49;46.40;;;8.48;;
19436;SDS011;9854;50.968;4.168;2023-11-19T08:08:15;52.50;;;8.40;;
19436;SDS011;9854;50.968;4.168;2023-11-19T08:10:42;54.25;;;9.18;;
19436;SDS011;9854;50.968;4.168;2023-11-19T08:13:09;53.50;;;9.48;;
19436;SDS011;9854;50.968;4.168;2023-11-19T08:15:35;49.92;;;8.82;;
19436;SDS011;9854;50.968;4.168;2023-11-19T08:18:01;50.45;;;9.15;;
19436;SDS011;9854;50.968;4.168;2023-11-19T08:20:27;47.40;;;9.18;;
19436;SDS011;9854;50.968;4.168;2023-11-19T08:22:53;49.58;;;8.45;;
19436;SDS011;9854;50.968;4.168;2023-11-19T08:25:18;48.60;;;8.60;;
19436;SDS011;9854;50.968;4.168;2023-11-19T08:27:45;46.45;;;9.63;;
19436;SDS011;9854;50.968;4.168;2023-11-19T08:30:11;49.00;;;8.55;;
19436;SDS011;9854;50.968;4.168;2023-11-19T08:32:37;45.08;;;8.23;;
19436;SDS011;9854;50.968;4.168;2023-11-19T08:35:03;44.67;;;8.50;;
19436;SDS011;9854;50.968;4.168;2023-11-19T08:37:29;46.40;;;8.50;;
19436;SDS011;9854;50.968;4.168;2023-11-19T08:39:54;37.58;;;7.65;;
19436;SDS011;9854;50.968;4.168;2023-11-19T08:42:20;48.55;;;8.25;;
19436;SDS011;9854;50.968;4.168;2023-11-19T08:44:50;46.20;;;8.20;;
19436;SDS011;9854;50.968;4.168;2023-11-19T08:47:19;39.63;;;7.63;;
19436;SDS011;9854;50.968;4.168;2023-11-19T08:49:45;46.38;;;7.35;;
19436;SDS011;9854;50.968;4.168;2023-11-19T08:52:11;43.20;;;7.68;;
19436;SDS011;9854;50.968;4.168;2023-11-19T08:54:37;36.72;;;6.82;;
19436;SDS011;9854;50.968;4.168;2023-11-19T08:57:03;39.08;;;7.85;;
19436;SDS011;9854;50.968;4.168;2023-11-19T08:59:29;41.03;;;7.07;;
19436;SDS011;9854;50.968;4.168;2023-11-19T09:01:55;39.05;;;7.60;;
19436;SDS011;9854;50.968;4.168;2023-11-19T09:04:21;42.00;;;7.93;;
19436;SDS011;9854;50.968;4.168;2023-11-19T09:06:49;41.92;;;7.40;;
19436;SDS011;9854;50.968;4.168;2023-11-19T09:09:16;37.88;;;8.20;;
19436;SDS011;9854;50.968;4.168;2023-11-19T09:11:41;46.03;;;8.55;;
19436;SDS011;9854;50.968;4.168;2023-11-19T09:14:07;38.05;;;7.70;;
19436;SDS011;9854;50.968;4.168;2023-11-19T09:16:33;45.28;;;7.65;;
19436;SDS011;9854;50.968;4.168;2023-11-19T09:18:59;46.17;;;8.15;;
19436;SDS011;9854;50.968;4.168;2023-11-19T09:21:26;43.70;;;7.45;;
19436;SDS011;9854;50.968;4.168;2023-11-19T09:23:51;41.25;;;7.28;;
19436;SDS011;9854;50.968;4.168;2023-11-19T09:26:18;35.17;;;7.07;;
19436;SDS011;9854;50.968;4.168;2023-11-19T09:28:46;45.90;;;7.15;;
19436;SDS011;9854;50.968;4.168;2023-11-19T09:31:15;32.78;;;6.50;;
19436;SDS011;9854;50.968;4.168;2023-11-19T09:33:41;34.25;;;6.13;;
19436;SDS011;9854;50.968;4.168;2023-11-19T09:36:08;31.90;;;5.90;;
19436;SDS011;9854;50.968;4.168;2023-11-19T09:38:34;35.05;;;5.97;;
19436;SDS011;9854;50.968;4.168;2023-11-19T09:41:03;31.75;;;6.07;;
19436;SDS011;9854;50.968;4.168;2023-11-19T09:43:33;29.30;;;6.00;;
19436;SDS011;9854;50.968;4.168;2023-11-19T09:46:02;25.90;;;5.75;;
19436;SDS011;9854;50.968;4.168;2023-11-19T09:48:36;29.92;;;6.03;;
19436;SDS011;9854;50.968;4.168;2023-11-19T09:51:10;30.27;;;6.47;;
19436;SDS011;9854;50.968;4.168;2023-11-19T09:53:36;31.45;;;6.43;;
19436;SDS011;9854;50.968;4.168;2023-11-19T09:56:05;36.92;;;6.28;;
19436;SDS011;9854;50.968;4.168;2023-11-19T09:58:32;31.08;;;5.43;;
19436;SDS011;9854;50.968;4.168;2023-11-19T10:00:59;37.60;;;6.40;;
19436;SDS011;9854;50.968;4.168;2023-11-19T10:03:26;31.88;;;5.78;;
19436;SDS011;9854;50.968;4.168;2023-11-19T10:05:54;35.83;;;6.18;;
19436;SDS011;9854;50.968;4.168;2023-11-19T10:08:21;37.78;;;6.15;;
19436;SDS011;9854;50.968;4.168;2023-11-19T10:10:47;34.92;;;6.57;;
19436;SDS011;9854;50.968;4.168;2023-11-19T10:13:13;28.52;;;5.82;;
19436;SDS011;9854;50.968;4.168;2023-11-19T10:15:39;34.22;;;5.93;;
19436;SDS011;9854;50.968;4.168;2023-11-19T10:18:06;31.15;;;6.20;;
19436;SDS011;9854;50.968;4.168;2023-11-19T10:20:38;40.63;;;6.25;;
19436;SDS011;9854;50.968;4.168;2023-11-19T10:39:57;46.47;;;10.15;;
19436;SDS011;9854;50.968;4.168;2023-11-19T10:45:39;34.90;;;7.97;;
19436;SDS011;9854;50.968;4.168;2023-11-19T10:48:10;34.10;;;7.82;;
19436;SDS011;9854;50.968;4.168;2023-11-19T10:50:38;32.40;;;6.40;;
19436;SDS011;9854;50.968;4.168;2023-11-19T10:53:06;53.25;;;17.55;;
19436;SDS011;9854;50.968;4.168;2023-11-19T10:55:34;41.33;;;12.90;;
19436;SDS011;9854;50.968;4.168;2023-11-19T10:58:01;43.47;;;10.95;;
19436;SDS011;9854;50.968;4.168;2023-11-19T11:03:14;41.00;;;10.98;;
19436;SDS011;9854;50.968;4.168;2023-11-19T11:05:48;34.35;;;8.85;;
19436;SDS011;9854;50.968;4.168;2023-11-19T11:08:16;30.45;;;6.28;;
19436;SDS011;9854;50.968;4.168;2023-11-19T11:11:03;28.42;;;5.25;;
19436;SDS011;9854;50.968;4.168;2023-11-19T11:13:29;29.70;;;6.28;;
19436;SDS011;9854;50.968;4.168;2023-11-19T11:15:58;29.90;;;6.72;;
19436;SDS011;9854;50.968;4.168;2023-11-19T11:18:27;32.47;;;6.53;;
19436;SDS011;9854;50.968;4.168;2023-11-19T11:20:56;29.90;;;7.15;;
19436;SDS011;9854;50.968;4.168;2023-11-19T11:23:52;28.90;;;6.35;;
19436;SDS011;9854;50.968;4.168;2023-11-19T11:32:06;25.50;;;5.93;;
19436;SDS011;9854;50.968;4.168;2023-11-19T11:40:04;36.03;;;7.20;;
19436;SDS011;9854;50.968;4.168;2023-11-19T11:42:35;36.58;;;8.32;;
19436;SDS011;9854;50.968;4.168;2023-11-19T11:45:07;30.95;;;7.25;;
19436;SDS011;9854;50.968;4.168;2023-11-19T11:57:57;34.75;;;11.23;;
19436;SDS011;9854;50.968;4.168;2023-11-19T12:02:56;30.73;;;5.75;;
19436;SDS011;9854;50.968;4.168;2023-11-19T12:05:25;36.47;;;7.30;;
19436;SDS011;9854;50.968;4.168;2023-11-19T12:07:55;32.45;;;6.53;;
19436;SDS011;9854;50.968;4.168;2023-11-19T12:10:23;31.20;;;6.28;;
19436;SDS011;9854;50.968;4.168;2023-11-19T12:12:53;33.20;;;6.43;;
19436;SDS011;9854;50.968;4.168;2023-11-19T12:15:23;34.30;;;5.88;;
19436;SDS011;9854;50.968;4.168;2023-11-19T12:17:54;25.25;;;5.68;;
19436;SDS011;9854;50.968;4.168;2023-11-19T12:20:21;39.92;;;7.32;;
19436;SDS011;9854;50.968;4.168;2023-11-19T12:22:51;26.13;;;6.30;;
19436;SDS011;9854;50.968;4.168;2023-11-19T12:25:18;33.03;;;6.15;;
19436;SDS011;9854;50.968;4.168;2023-11-19T12:27:48;26.90;;;6.10;;
19436;SDS011;9854;50.968;4.168;2023-11-19T12:30:25;30.45;;;5.68;;
19436;SDS011;9854;50.968;4.168;2023-11-19T12:32:54;36.95;;;6.65;;
19436;SDS011;9854;50.968;4.168;2023-11-19T12:35:20;29.30;;;5.68;;
19436;SDS011;9854;50.968;4.168;2023-11-19T12:37:47;31.38;;;6.32;;
19436;SDS011;9854;50.968;4.168;2023-11-19T12:42:42;29.55;;;5.80;;
19436;SDS011;9854;50.968;4.168;2023-11-19T12:45:08;37.03;;;5.82;;
19436;SDS011;9854;50.968;4.168;2023-11-19T12:47:38;23.30;;;5.32;;
19436;SDS011;9854;50.968;4.168;2023-11-19T12:50:05;28.02;;;5.65;;
19436;SDS011;9854;50.968;4.168;2023-11-19T12:52:32;25.73;;;6.03;;
19436;SDS011;9854;50.968;4.168;2023-11-19T12:54:59;29.25;;;6.30;;
19436;SDS011;9854;50.968;4.168;2023-11-19T12:57:38;32.80;;;6.38;;
19436;SDS011;9854;50.968;4.168;2023-11-19T13:00:05;32.17;;;6.70;;
19436;SDS011;9854;50.968;4.168;2023-11-19T13:02:47;35.20;;;6.22;;
19436;SDS011;9854;50.968;4.168;2023-11-19T13:05:23;27.42;;;5.57;;
19436;SDS011;9854;50.968;4.168;2023-11-19T13:10:28;42.15;;;14.93;;
19436;SDS011;9854;50.968;4.168;2023-11-19T13:13:04;31.30;;;6.43;;
19436;SDS011;9854;50.968;4.168;2023-11-19T13:15:34;45.60;;;7.75;;
19436;SDS011;9854;50.968;4.168;2023-11-19T13:18:00;40.78;;;11.75;;
19436;SDS011;9854;50.968;4.168;2023-11-19T13:20:29;35.25;;;8.95;;
19436;SDS011;9854;50.968;4.168;2023-11-19T13:22:55;58.70;;;16.73;;
19436;SDS011;9854;50.968;4.168;2023-11-19T13:25:25;35.13;;;6.63;;
19436;SDS011;9854;50.968;4.168;2023-11-19T13:27:51;45.85;;;13.88;;
19436;SDS011;9854;50.968;4.168;2023-11-19T13:30:17;34.90;;;7.05;;
19436;SDS011;9854;50.968;4.168;2023-11-19T13:32:43;38.72;;;8.80;;
19436;SDS011;9854;50.968;4.168;2023-11-19T13:35:14;46.15;;;10.85;;
19436;SDS011;9854;50.968;4.168;2023-11-19T13:37:42;52.03;;;15.05;;
19436;SDS011;9854;50.968;4.168;2023-11-19T13:40:11;38.58;;;12.68;;
19436;SDS011;9854;50.968;4.168;2023-11-19T13:42:40;38.35;;;7.43;;
19436;SDS011;9854;50.968;4.168;2023-11-19T13:45:10;30.88;;;7.45;;
19436;SDS011;9854;50.968;4.168;2023-11-19T13:47:39;38.50;;;8.88;;
19436;SDS011;9854;50.968;4.168;2023-11-19T13:52:38;31.42;;;7.53;;
19436;SDS011;9854;50.968;4.168;2023-11-19T13:55:06;34.75;;;7.05;;
19436;SDS011;9854;50.968;4.168;2023-11-19T13:57:33;36.00;;;7.25;;
19436;SDS011;9854;50.968;4.168;2023-11-19T14:00:03;37.08;;;8.60;;
19436;SDS011;9854;50.968;4.168;2023-11-19T14:02:31;42.70;;;10.30;;
19436;SDS011;9854;50.968;4.168;2023-11-19T14:04:57;43.50;;;11.50;;
19436;SDS011;9854;50.968;4.168;2023-11-19T14:07:26;40.30;;;7.85;;
19436;SDS011;9854;50.968;4.168;2023-11-19T14:09:55;41.38;;;10.40;;
19436;SDS011;9854;50.968;4.168;2023-11-19T14:12:23;38.58;;;8.00;;
19436;SDS011;9854;50.968;4.168;2023-11-19T14:14:50;41.83;;;7.82;;
19436;SDS011;9854;50.968;4.168;2023-11-19T14:17:16;34.17;;;9.35;;
19436;SDS011;9854;50.968;4.168;2023-11-19T14:19:42;39.08;;;11.45;;
19436;SDS011;9854;50.968;4.168;2023-11-19T14:22:09;49.85;;;16.40;;
19436;SDS011;9854;50.968;4.168;2023-11-19T14:24:35;46.83;;;13.18;;
19436;SDS011;9854;50.968;4.168;2023-11-19T14:27:00;43.42;;;10.57;;
19436;SDS011;9854;50.968;4.168;2023-11-19T14:29:27;48.63;;;9.90;;
19436;SDS011;9854;50.968;4.168;2023-11-19T14:31:55;41.42;;;7.78;;
19436;SDS011;9854;50.968;4.168;2023-11-19T14:34:24;44.38;;;7.68;;
19436;SDS011;9854;50.968;4.168;2023-11-19T14:36:51;39.63;;;7.07;;
19436;SDS011;9854;50.968;4.168;2023-11-19T14:39:17;40.70;;;7.75;;
19436;SDS011;9854;50.968;4.168;2023-11-19T14:41:43;34.10;;;8.95;;
19436;SDS011;9854;50.968;4.168;2023-11-19T14:44:09;46.83;;;9.68;;
19436;SDS011;9854;50.968;4.168;2023-11-19T14:46:35;44.72;;;10.20;;
19436;SDS011;9854;50.968;4.168;2023-11-19T14:49:01;49.50;;;8.25;;
19436;SDS011;9854;50.968;4.168;2023-11-19T14:51:27;53.45;;;9.10;;
19436;SDS011;9854;50.968;4.168;2023-11-19T14:53:52;49.08;;;8.07;;
19436;SDS011;9854;50.968;4.168;2023-11-19T14:56:18;42.72;;;7.20;;
19436;SDS011;9854;50.968;4.168;2023-11-19T14:58:46;34.53;;;6.68;;
19436;SDS011;9854;50.968;4.168;2023-11-19T15:01:12;33.08;;;6.88;;
19436;SDS011;9854;50.968;4.168;2023-11-19T15:03:38;34.10;;;6.53;;
19436;SDS011;9854;50.968;4.168;2023-11-19T15:06:04;39.38;;;7.38;;
19436;SDS011;9854;50.968;4.168;2023-11-19T15:08:31;37.42;;;7.03;;
19436;SDS011;9854;50.968;4.168;2023-11-19T15:10:59;33.67;;;7.38;;
19436;SDS011;9854;50.968;4.168;2023-11-19T15:13:30;40.15;;;6.75;;
19436;SDS011;9854;50.968;4.168;2023-11-19T15:15:57;30.42;;;6.05;;
19436;SDS011;9854;50.968;4.168;2023-11-19T15:18:25;34.03;;;6.63;;
19436;SDS011;9854;50.968;4.168;2023-11-19T15:20:53;34.38;;;7.63;;
19436;SDS011;9854;50.968;4.168;2023-11-19T15:23:21;38.28;;;7.47;;
19436;SDS011;9854;50.968;4.168;2023-11-19T15:25:46;35.40;;;6.95;;
19436;SDS011;9854;50.968;4.168;2023-11-19T15:28:16;38.75;;;7.10;;
19436;SDS011;9854;50.968;4.168;2023-11-19T15:30:41;35.22;;;6.55;;
19436;SDS011;9854;50.968;4.168;2023-11-19T15:33:07;35.63;;;7.35;;
19436;SDS011;9854;50.968;4.168;2023-11-19T15:35:34;49.70;;;12.35;;
19436;SDS011;9854;50.968;4.168;2023-11-19T15:38:00;44.20;;;10.55;;
19436;SDS011;9854;50.968;4.168;2023-11-19T15:40:28;46.63;;;11.60;;
19436;SDS011;9854;50.968;4.168;2023-11-19T15:42:56;33.95;;;8.13;;